Flight Track Log - Related Links

Times and Time Zones

All times are in EDT time to prevent confusion due to time zone crossing. See the RPA3196 flight status page for this flight to view local times or setup timezone preferences in your user account.

Time Position Orientation Groundspeed Altitude Reporting Facility
EDT Latitude Longitude Course Direction KTS MPH feet Rate Location/Type
Tue 06:43:47 AM 41.3856 -81.8783 108° East 144 166 2,300  Level Cleveland Center
Tue 06:44:48 AM 41.3381 -81.8469 154° Southeast 221 254 3,900 1,785 Climbing Cleveland Center
Tue 06:45:48 AM 41.3056 -81.7606 117° Southeast 269 310 5,900 2,300 Climbing Cleveland Center
Tue 06:46:00 AM 41.2062 -81.4156 118° Southeast  Level FlightAware Approximate
Tue 06:46:48 AM 41.2692 -81.6578 115° Southeast 290 334 8,500  Level Cleveland Center
Tue 06:47:00 AM 41.1504 -81.3131 127° Southeast  Level FlightAware Approximate
Tue 06:47:48 AM 41.2347 -81.5494 113° Southeast 309 356 10,900  Level Cleveland Center
Tue 06:48:00 AM 41.1019 -81.2046 118° Southeast  Level FlightAware Approximate
Tue 06:48:48 AM 41.1939 -81.4358 116° Southeast 327 376 12,900  Level Cleveland Center
Tue 06:49:00 AM 41.0713 -81.0849 108° East  Level FlightAware Approximate
Tue 06:49:48 AM 41.1489 -81.3194 117° Southeast 340 391 15,500  Level Cleveland Center
Tue 06:50:48 AM 41.1058 -81.1975 115° Southeast 362 417 17,800 2,250 Climbing Cleveland Center
Tue 06:51:48 AM 41.0667 -81.0622 111° Southeast 368 423 20,000 2,100 Climbing Cleveland Center
Tue 06:52:48 AM 41.0319 -80.9272 109° East 383 441 22,000 1,850 Climbing Cleveland Center
Tue 06:53:48 AM 40.9925 -80.7894 111° Southeast 388 447 23,700 1,500 Climbing Cleveland Center
Tue 06:54:48 AM 40.9531 -80.6519 111° Southeast 393 452 25,000 650 Climbing Cleveland Center
Tue 06:55:48 AM 40.9114 -80.5061 111° Southeast 399 459 25,000  Level Cleveland Center
Tue 06:56:48 AM 40.8717 -80.3661 111° Southeast 405 466 25,000  Level Cleveland Center
Tue 06:57:48 AM 40.8297 -80.2319 112° Southeast 410 472 25,000  Level Cleveland Center
Tue 06:58:48 AM 40.7833 -80.1033 115° Southeast 403 464 25,000  Level Cleveland Center
Tue 06:59:48 AM 40.7472 -79.9911 113° Southeast 398 458 25,000  Level Cleveland Center
Tue 07:00:48 AM 40.6944 -79.8492 116° Southeast 398 458 25,000  Level Cleveland Center
Tue 07:01:48 AM 40.6475 -79.7183 115° Southeast 398 458 25,000  Level Cleveland Center
Tue 07:02:48 AM 40.6028 -79.5850 114° Southeast 398 458 25,000  Level Cleveland Center
Tue 07:03:48 AM 40.5847 -79.4458 100° East 392 451 25,000  Level Cleveland Center
Tue 07:04:48 AM 40.5664 -79.2903 99° East 387 445 25,000  Level Cleveland Center
Tue 07:05:48 AM 40.5525 -79.1622 98° East 393 452 25,000  Level Cleveland Center
Tue 07:06:48 AM 40.5381 -79.0258 98° East 387 445 25,000  Level Cleveland Center
Tue 07:07:48 AM 40.5214 -78.8869 99° East 387 445 25,000  Level Cleveland Center
Tue 07:08:48 AM 40.5069 -78.7481 98° East 387 445 25,000  Level Cleveland Center
Tue 07:09:48 AM 40.4900 -78.6119 99° East 387 445 25,000  Level Cleveland Center
Tue 07:12:04 AM 40.4517 -78.2858 99° East 376 433 25,000  Level New York Center
Tue 07:13:06 AM 40.4356 -78.1478 99° East 376 433 25,000  Level New York Center
Tue 07:14:03 AM 40.4189 -78.0097 99° East 376 433 25,000 -103 Level New York Center
Tue 07:15:03 AM 40.4022 -77.8717 99° East 376 433 24,800 -645 Descending New York Center
Tue 07:16:04 AM 40.3811 -77.7358 101° East 376 433 23,700 -1,082 Descending New York Center
Tue 07:17:05 AM 40.3600 -77.6000 101° East 376 433 22,600 -1,091 Descending New York Center
Tue 07:18:05 AM 40.3364 -77.4644 103° East 376 433 21,500 -1,059 Descending New York Center
Tue 07:19:04 AM 40.3106 -77.3311 104° East 381 438 20,500 -1,008 Descending New York Center
Tue 07:20:04 AM 40.2878 -77.2147 104° East 381 438 19,500 -1,008 Descending New York Center
Tue 07:21:03 AM 40.2656 -77.0847 103° East 370 426 18,500 -756 Descending New York Center
Tue 07:22:03 AM 40.2397 -76.9408 103° East 365 420 18,000 -248 Descending New York Center
Tue 07:23:04 AM 40.2231 -76.8197 100° East 372 428 18,000  Level New York Center
Tue 07:24:05 AM 40.2067 -76.6906 99° East 366 421 18,000  Level New York Center
Tue 07:25:05 AM 40.1886 -76.5503 100° East 356 410 18,000 -101 Level New York Center
Tue 07:26:04 AM 40.1717 -76.4267 100° East 356 410 17,800 -908 Descending New York Center
Tue 07:27:04 AM 40.1567 -76.3033 99° East 348 400 16,200 -1,636 Descending New York Center
Tue 07:28:05 AM 40.1411 -76.1933 100° East 342 394 14,500 -1,835 Descending New York Center
Tue 07:29:05 AM 40.1239 -76.0644 100° East 333 383 12,500 -1,850 Descending New York Center
Tue 07:30:05 AM 40.1103 -75.9494 99° East 323 372 10,800 -1,664 Descending New York Center
Tue 07:31:04 AM 40.0919 -75.8422 103° East 309 356 9,200 -1,400 Descending New York Center
Tue 07:32:05 AM 40.0822 -75.7331 97° East 303 349 8,000 -908 Descending New York Center
Tue 07:33:03 AM 40.0739 -75.6267 96° East 293 337 7,400 -504 Descending New York Center
Tue 07:34:04 AM 40.0694 -75.5314 93° East 293 337 7,000 -198 Descending New York Center
Tue 07:35:04 AM 40.0639 -75.4142 94° East 293 337 7,000 -470 Level New York Center
Tue 07:35:59 AM 40.0667 -75.3167 88° East 294 338 6,100 -1,036 Descending Philadelphia TRACON
Tue 07:36:54 AM 40.0500 -75.2167 102° East 272 313 5,100 -744 Descending Philadelphia TRACON
Tue 07:38:00 AM 40.0167 -75.1333 118° Southeast 215 247 4,600 -952 Descending Philadelphia TRACON
Tue 07:39:00 AM 39.9667 -75.1000 153° Southeast 208 239 3,100 -1,190 Descending Philadelphia TRACON
Tue 07:40:06 AM 39.9167 -75.0833 166° South 177 204 2,100 -800 Descending Philadelphia TRACON
Tue 07:41:00 AM 39.9000 -75.1167 237° Southwest 163 188 1,500 -667 Descending Philadelphia TRACON

Login

Don't have an account? Register now (free) for customized features, flight alerts, and more!